Time;durP1;ratioP1;P1;durP2;ratioP2;P2;SDS_P1;SDS_P2;PMS_P1;PMS_P2;Temp;Humidity;BMP_temperature;BMP_pressure;BME280_temperature;BME280_humidity;BME280_pressure;Samples;Min_cycle;Max_cycle;Signal;HPM_P1;HPM_P2
2022/03/02 00:01:59;;;;;;;22.83;7.18;;;11.20;99.90;;;;;;5032271;28;20402;-66
2022/03/02 00:04:25;;;;;;;19.02;7.53;;;11.20;99.90;;;;;;5032411;28;20017;-66
2022/03/02 00:06:51;;;;;;;19.15;7.20;;;11.10;99.90;;;;;;5031208;28;20025;-66
2022/03/02 00:09:17;;;;;;;18.67;7.15;;;11.20;99.90;;;;;;5032049;28;20494;-66
2022/03/02 00:11:43;;;;;;;13.38;6.18;;;11.10;99.90;;;;;;5034418;28;20486;-65
2022/03/02 00:14:09;;;;;;;20.23;7.05;;;11.10;99.90;;;;;;5032240;28;20490;-66
2022/03/02 00:16:35;;;;;;;17.13;7.00;;;11.10;99.90;;;;;;5032089;28;20083;-65
2022/03/02 00:19:02;;;;;;;19.27;6.72;;;11.10;99.90;;;;;;5032182;28;20501;-66
2022/03/02 00:21:28;;;;;;;21.95;7.50;;;11.10;99.90;;;;;;5030549;28;20021;-66
2022/03/02 00:23:54;;;;;;;17.98;6.40;;;11.10;99.90;;;;;;5033585;28;20100;-66
2022/03/02 00:26:20;;;;;;;18.88;6.60;;;11.10;99.90;;;;;;5032586;28;20151;-66
2022/03/02 00:28:46;;;;;;;22.23;7.80;;;11.00;99.90;;;;;;5031929;28;20037;-66
2022/03/02 00:31:12;;;;;;;18.13;6.97;;;11.10;99.90;;;;;;5031790;28;20030;-66
2022/03/02 00:33:38;;;;;;;17.52;6.85;;;11.10;99.90;;;;;;5031908;28;20030;-65
2022/03/02 00:36:05;;;;;;;18.30;6.97;;;11.00;99.90;;;;;;5032228;28;20054;-66
2022/03/02 00:38:31;;;;;;;22.08;7.60;;;11.10;99.90;;;;;;5030063;28;20432;-66
2022/03/02 00:40:56;;;;;;;18.65;6.95;;;11.00;99.90;;;;;;5031473;28;20038;-66
2022/03/02 00:43:22;;;;;;;21.98;7.20;;;11.00;99.90;;;;;;5032043;28;20036;-66
2022/03/02 00:45:48;;;;;;;23.85;7.35;;;11.10;99.90;;;;;;5030321;28;20530;-66
2022/03/02 00:48:14;;;;;;;20.13;7.30;;;11.00;99.90;;;;;;5031717;28;20025;-66
2022/03/02 00:50:40;;;;;;;20.27;7.65;;;11.10;99.90;;;;;;5033443;28;20033;-66
2022/03/02 00:53:07;;;;;;;20.25;8.07;;;11.10;99.90;;;;;;5031114;28;20071;-65
2022/03/02 00:55:33;;;;;;;18.48;7.10;;;11.00;99.90;;;;;;5031436;28;20124;-65
2022/03/02 00:58:00;;;;;;;20.77;7.38;;;11.00;99.90;;;;;;5031710;28;20022;-66
2022/03/02 01:00:26;;;;;;;19.58;8.25;;;10.90;99.90;;;;;;5029867;28;20037;-67
2022/03/02 01:02:52;;;;;;;18.08;7.90;;;10.90;99.90;;;;;;5033168;28;20029;-66
2022/03/02 01:05:17;;;;;;;21.92;7.22;;;10.90;99.90;;;;;;5031760;28;20033;-66
2022/03/02 01:07:43;;;;;;;19.35;7.50;;;10.90;99.90;;;;;;5030883;28;20060;-66
2022/03/02 01:10:09;;;;;;;20.48;7.28;;;10.80;99.90;;;;;;5030827;28;20063;-66
2022/03/02 01:12:35;;;;;;;22.70;7.60;;;10.80;99.90;;;;;;5031110;28;20030;-66
2022/03/02 01:15:02;;;;;;;18.52;7.45;;;10.80;99.90;;;;;;5032087;28;20091;-66
2022/03/02 01:17:28;;;;;;;20.52;7.57;;;10.80;99.90;;;;;;5032502;28;20025;-66
2022/03/02 01:19:54;;;;;;;17.67;7.47;;;10.80;99.90;;;;;;5030908;28;20037;-66
2022/03/02 01:22:20;;;;;;;19.70;7.70;;;10.80;99.90;;;;;;5030485;28;20025;-66
2022/03/02 01:24:46;;;;;;;25.52;7.72;;;10.70;99.90;;;;;;5030079;28;20088;-66
2022/03/02 01:27:12;;;;;;;19.20;7.55;;;10.70;99.90;;;;;;5030804;28;20034;-66
2022/03/02 01:29:38;;;;;;;18.92;7.55;;;10.60;99.90;;;;;;5032907;28;20052;-66
2022/03/02 01:32:08;;;;;;;19.45;7.70;;;10.60;99.90;;;;;;5030329;28;20026;-66
2022/03/02 01:34:34;;;;;;;19.25;7.30;;;10.70;99.90;;;;;;5030354;28;20049;-66
2022/03/02 01:37:00;;;;;;;15.70;7.25;;;10.70;99.90;;;;;;5030179;28;20033;-66
2022/03/02 01:39:26;;;;;;;18.25;7.60;;;10.70;99.90;;;;;;5029671;28;20549;-66
2022/03/02 01:41:53;;;;;;;20.05;7.20;;;10.60;99.90;;;;;;5032110;28;20025;-66
2022/03/02 01:44:19;;;;;;;21.15;7.25;;;10.60;99.90;;;;;;5031808;28;20021;-66
2022/03/02 01:46:45;;;;;;;21.20;7.60;;;10.70;99.90;;;;;;5030565;28;20429;-66
2022/03/02 01:49:11;;;;;;;18.65;7.30;;;10.60;99.90;;;;;;5030128;28;20027;-65
2022/03/02 01:51:37;;;;;;;17.95;7.22;;;10.60;99.90;;;;;;5030969;28;20033;-66
2022/03/02 01:54:03;;;;;;;19.58;7.65;;;10.60;99.90;;;;;;5030672;28;20045;-66
2022/03/02 01:56:30;;;;;;;22.65;7.78;;;10.70;99.90;;;;;;5032086;28;20028;-66
2022/03/02 01:58:56;;;;;;;20.02;7.68;;;10.60;99.90;;;;;;5030616;28;20033;-66
2022/03/02 02:01:21;;;;;;;20.10;7.63;;;10.70;99.90;;;;;;5030234;28;20044;-66
2022/03/02 02:03:47;;;;;;;18.50;6.68;;;10.60;99.90;;;;;;5028616;28;20045;-65
2022/03/02 02:06:14;;;;;;;17.42;7.38;;;10.50;99.90;;;;;;5030285;28;20120;-66
2022/03/02 02:08:41;;;;;;;18.80;7.15;;;10.50;99.90;;;;;;5031928;28;20029;-65
2022/03/02 02:11:09;;;;;;;15.55;6.45;;;10.50;99.90;;;;;;5030003;28;20117;-65
2022/03/02 02:13:35;;;;;;;14.45;6.90;;;10.50;99.90;;;;;;5030273;28;20029;-66
2022/03/02 02:16:04;;;;;;;15.05;6.70;;;10.60;99.90;;;;;;5030046;28;20048;-66
2022/03/02 02:18:30;;;;;;;20.15;7.35;;;10.60;99.90;;;;;;5028345;28;20036;-66
2022/03/02 02:21:09;;;;;;;14.95;7.22;;;10.50;99.90;;;;;;5031682;28;20048;-66
2022/03/02 02:23:36;;;;;;;17.98;6.57;;;10.50;99.90;;;;;;5030321;28;20056;-66
2022/03/02 02:26:02;;;;;;;22.15;7.28;;;10.50;99.90;;;;;;5030234;28;20056;-65
2022/03/02 02:28:28;;;;;;;19.75;7.28;;;10.50;99.90;;;;;;5029924;28;20111;-66
2022/03/02 02:30:56;;;;;;;21.83;7.20;;;10.50;99.90;;;;;;5030311;28;20037;-66
2022/03/02 02:33:22;;;;;;;15.25;6.72;;;10.60;99.90;;;;;;5029713;28;20017;-66
2022/03/02 02:35:49;;;;;;;16.75;6.55;;;10.50;99.90;;;;;;5031766;28;20053;-66
2022/03/02 02:38:16;;;;;;;23.15;7.70;;;10.70;99.90;;;;;;5029851;28;20109;-65
2022/03/02 02:40:41;;;;;;;18.88;7.30;;;10.40;99.90;;;;;;5029578;28;20117;-65
2022/03/02 02:43:07;;;;;;;17.67;6.95;;;10.50;99.90;;;;;;5028506;28;20449;-66
2022/03/02 02:45:34;;;;;;;18.25;7.47;;;10.50;99.90;;;;;;5032650;28;20033;-65
2022/03/02 02:47:59;;;;;;;16.58;6.93;;;10.40;99.90;;;;;;5034420;28;20386;-66
2022/03/02 02:50:28;;;;;;;20.60;7.18;;;10.30;99.90;;;;;;5034718;28;20033;-66
2022/03/02 02:52:56;;;;;;;17.17;6.72;;;10.30;99.90;;;;;;5033809;28;20104;-66
2022/03/02 02:55:24;;;;;;;21.52;7.20;;;10.30;99.90;;;;;;5033720;28;20033;-65
2022/03/02 02:57:51;;;;;;;18.67;7.50;;;10.40;99.90;;;;;;5032126;28;20441;-66
2022/03/02 03:00:18;;;;;;;19.13;8.20;;;10.40;99.90;;;;;;5033646;28;20440;-66
2022/03/02 03:02:48;;;;;;;19.02;7.60;;;10.40;99.90;;;;;;5035084;28;20022;-65
2022/03/02 03:05:20;;;;;;;18.98;6.80;;;10.40;99.90;;;;;;5033770;28;20035;-65
2022/03/02 03:07:46;;;;;;;17.15;7.18;;;10.40;99.90;;;;;;5033449;28;20029;-65
2022/03/02 03:10:13;;;;;;;19.90;7.60;;;10.40;99.90;;;;;;5033390;28;20116;-66
2022/03/02 03:12:40;;;;;;;19.67;7.15;;;10.20;99.90;;;;;;5033446;28;20456;-65
2022/03/02 03:15:09;;;;;;;19.02;6.97;;;10.30;99.90;;;;;;5033736;28;20072;-65
2022/03/02 03:17:35;;;;;;;19.27;7.05;;;10.30;99.90;;;;;;5034629;28;20083;-66
2022/03/02 03:20:01;;;;;;;14.90;6.90;;;10.20;99.90;;;;;;5033449;28;20447;-66
2022/03/02 03:22:27;;;;;;;19.10;7.25;;;10.10;99.90;;;;;;5031815;28;20108;-66
2022/03/02 03:24:53;;;;;;;17.23;7.32;;;10.20;99.90;;;;;;5033859;28;20542;-66
2022/03/02 03:27:19;;;;;;;18.13;7.40;;;10.20;99.90;;;;;;5016171;28;20036;-66
2022/03/02 03:29:45;;;;;;;18.90;6.93;;;10.20;99.90;;;;;;5034698;28;20101;-66
2022/03/02 03:32:11;;;;;;;16.35;7.43;;;10.20;99.90;;;;;;5033110;28;20435;-66
2022/03/02 03:34:37;;;;;;;18.67;7.43;;;10.20;99.90;;;;;;5032538;28;20041;-64
2022/03/02 03:37:03;;;;;;;19.83;8.00;;;10.10;99.90;;;;;;5031533;28;20037;-66
2022/03/02 03:39:29;;;;;;;22.42;8.40;;;10.00;99.90;;;;;;5033144;28;20076;-65
2022/03/02 03:41:55;;;;;;;16.63;7.65;;;9.90;99.90;;;;;;5034187;28;20096;-66
2022/03/02 03:44:22;;;;;;;21.25;7.88;;;9.90;99.90;;;;;;5033235;28;20033;-66
2022/03/02 03:46:48;;;;;;;17.60;7.70;;;9.90;99.90;;;;;;5032748;28;20025;-65
2022/03/02 03:49:14;;;;;;;19.25;8.57;;;10.00;99.90;;;;;;5032621;28;20036;-65
2022/03/02 03:51:39;;;;;;;17.95;7.45;;;9.90;99.90;;;;;;5032709;28;20033;-65
2022/03/02 03:54:05;;;;;;;21.30;8.15;;;9.80;99.90;;;;;;5032994;28;20030;-66
2022/03/02 03:56:31;;;;;;;19.25;7.72;;;9.80;99.90;;;;;;5032106;28;20025;-65
2022/03/02 03:59:00;;;;;;;17.67;7.93;;;9.90;99.90;;;;;;5032522;28;20046;-66
2022/03/02 04:01:26;;;;;;;21.95;8.95;;;9.90;99.90;;;;;;5032143;28;20032;-66
2022/03/02 04:03:52;;;;;;;22.48;8.18;;;9.80;99.90;;;;;;5032217;28;20032;-65
2022/03/02 04:06:18;;;;;;;19.55;7.88;;;9.70;99.90;;;;;;5032888;28;20403;-65
2022/03/02 04:08:45;;;;;;;21.33;7.82;;;9.80;99.90;;;;;;5034204;28;20025;-65
2022/03/02 04:11:10;;;;;;;22.70;8.38;;;9.80;99.90;;;;;;5032158;28;20033;-65
2022/03/02 04:13:36;;;;;;;21.70;8.45;;;9.90;99.90;;;;;;5032185;28;20039;-65
2022/03/02 04:16:03;;;;;;;22.00;8.10;;;9.70;99.90;;;;;;5030244;28;20091;-65
2022/03/02 04:18:31;;;;;;;15.95;7.93;;;9.70;99.90;;;;;;5031958;28;20068;-65
2022/03/02 04:21:00;;;;;;;17.80;8.30;;;9.60;99.90;;;;;;5033481;28;20459;-66
2022/03/02 04:23:26;;;;;;;24.67;8.52;;;9.60;99.90;;;;;;5033035;28;20052;-66
2022/03/02 04:25:52;;;;;;;22.85;8.82;;;9.60;99.90;;;;;;5032375;28;20029;-66
2022/03/02 04:28:18;;;;;;;18.23;8.52;;;9.50;99.90;;;;;;5031893;28;20056;-66
2022/03/02 04:30:44;;;;;;;20.77;9.43;;;9.40;99.90;;;;;;5031695;28;20028;-66
2022/03/02 04:33:10;;;;;;;24.00;9.70;;;9.40;99.90;;;;;;5032038;28;20041;-65
2022/03/02 04:35:36;;;;;;;19.73;9.25;;;9.10;99.90;;;;;;5032211;28;20046;-66
2022/03/02 04:38:03;;;;;;;20.83;9.05;;;9.30;99.90;;;;;;5031717;28;20098;-65
2022/03/02 04:40:29;;;;;;;21.98;9.15;;;9.20;99.90;;;;;;5030424;28;20017;-65
2022/03/02 04:42:56;;;;;;;21.55;8.65;;;9.10;99.90;;;;;;5031533;28;20029;-65
2022/03/02 04:45:27;;;;;;;20.13;8.48;;;9.20;99.90;;;;;;5031478;28;20036;-65
2022/03/02 04:47:54;;;;;;;24.83;9.05;;;9.20;99.90;;;;;;5029422;28;20037;-65
2022/03/02 04:50:20;;;;;;;22.27;9.02;;;9.10;99.90;;;;;;5030615;28;20032;-65
2022/03/02 04:52:47;;;;;;;24.40;12.25;;;9.10;99.90;;;;;;5031644;28;20140;-65
2022/03/02 04:55:13;;;;;;;20.70;9.15;;;9.00;99.90;;;;;;5029830;28;20030;-65
2022/03/02 04:57:43;;;;;;;21.23;9.23;;;9.00;99.90;;;;;;5031670;28;20030;-65
2022/03/02 05:00:26;;;;;;;22.92;9.73;;;8.90;99.90;;;;;;5031353;28;20034;-65
2022/03/02 05:02:53;;;;;;;24.52;9.52;;;9.10;99.90;;;;;;5029274;28;20036;-65
2022/03/02 05:05:22;;;;;;;21.33;10.05;;;9.00;99.90;;;;;;5031600;28;20029;-65
2022/03/02 05:07:48;;;;;;;26.70;10.18;;;8.90;99.90;;;;;;5030323;28;20044;-65
2022/03/02 05:10:16;;;;;;;23.33;9.07;;;9.00;99.90;;;;;;5031562;28;20477;-65
2022/03/02 05:12:43;;;;;;;22.10;8.68;;;9.10;99.90;;;;;;5030939;28;20442;-65
2022/03/02 05:15:10;;;;;;;21.17;9.27;;;9.20;99.90;;;;;;5031062;28;20033;-65
2022/03/02 05:17:37;;;;;;;21.77;9.25;;;9.10;99.90;;;;;;5032929;28;20083;-65
2022/03/02 05:20:04;;;;;;;23.52;8.90;;;9.00;99.90;;;;;;5029607;28;20034;-65
2022/03/02 05:22:30;;;;;;;20.05;9.23;;;9.10;99.90;;;;;;5031239;28;20032;-65
2022/03/02 05:24:56;;;;;;;20.20;8.85;;;9.00;99.90;;;;;;5031027;28;20022;-65
2022/03/02 05:27:22;;;;;;;20.73;9.02;;;9.00;99.90;;;;;;5030832;28;20029;-65
2022/03/02 05:29:47;;;;;;;22.65;8.77;;;9.10;99.90;;;;;;5032412;28;20513;-65
2022/03/02 05:32:13;;;;;;;21.42;8.77;;;8.90;99.90;;;;;;5031204;28;20112;-65
2022/03/02 05:34:39;;;;;;;22.48;9.70;;;9.10;99.90;;;;;;5028918;28;20038;-65
2022/03/02 05:37:05;;;;;;;22.27;9.15;;;9.00;99.90;;;;;;5030854;28;20452;-65
2022/03/02 05:39:30;;;;;;;20.75;8.73;;;9.10;99.90;;;;;;5030874;28;20502;-65
2022/03/02 05:41:56;;;;;;;20.98;9.27;;;9.10;99.90;;;;;;5031584;28;20553;-66
2022/03/02 05:44:22;;;;;;;18.20;8.43;;;9.00;99.90;;;;;;5031434;28;20509;-65
2022/03/02 05:46:49;;;;;;;23.33;9.75;;;9.00;99.90;;;;;;5030378;28;20056;-65
2022/03/02 05:49:15;;;;;;;19.80;9.27;;;8.90;99.90;;;;;;5030422;28;20038;-65
2022/03/02 05:51:41;;;;;;;20.42;9.68;;;8.90;99.90;;;;;;5030602;28;20087;-65
2022/03/02 05:54:08;;;;;;;22.25;10.00;;;9.00;99.90;;;;;;5030798;28;20025;-65
2022/03/02 05:56:38;;;;;;;21.42;9.50;;;9.10;99.90;;;;;;5031392;28;20041;-65
2022/03/02 05:59:05;;;;;;;23.67;10.70;;;8.90;99.90;;;;;;5029354;28;20482;-65
2022/03/02 06:01:31;;;;;;;21.60;10.13;;;8.80;99.90;;;;;;5030208;28;20045;-65
2022/03/02 06:03:58;;;;;;;23.15;10.57;;;8.80;99.90;;;;;;5030270;28;20029;-66
2022/03/02 06:06:24;;;;;;;24.77;10.48;;;8.80;99.90;;;;;;5030368;28;20060;-65
2022/03/02 06:08:50;;;;;;;23.35;10.30;;;8.70;99.90;;;;;;5032479;28;20112;-65
2022/03/02 06:11:17;;;;;;;24.75;10.75;;;8.90;99.90;;;;;;5029574;28;20552;-65
2022/03/02 06:13:42;;;;;;;24.63;10.25;;;8.80;99.90;;;;;;5028482;28;20030;-65
2022/03/02 06:16:09;;;;;;;23.65;10.70;;;8.80;99.90;;;;;;5029976;28;20513;-65
2022/03/02 06:18:35;;;;;;;23.65;10.80;;;8.80;99.90;;;;;;5029971;28;20028;-65
2022/03/02 06:21:02;;;;;;;21.67;10.90;;;8.70;99.90;;;;;;5030939;28;20099;-66
2022/03/02 06:23:32;;;;;;;21.20;10.38;;;8.60;99.90;;;;;;5031442;28;20040;-66
2022/03/02 06:25:58;;;;;;;20.05;9.68;;;8.70;99.90;;;;;;5029642;28;20063;-66
2022/03/02 06:28:24;;;;;;;22.70;9.90;;;8.70;99.90;;;;;;5029806;28;20097;-65
2022/03/02 06:30:50;;;;;;;24.35;10.65;;;8.70;99.90;;;;;;5029921;28;20022;-65
2022/03/02 06:33:18;;;;;;;25.00;10.98;;;8.70;99.90;;;;;;5030391;28;20087;-66
2022/03/02 06:35:48;;;;;;;24.23;10.98;;;8.80;99.90;;;;;;5031244;28;20076;-65
2022/03/02 06:38:14;;;;;;;26.63;13.90;;;8.60;99.90;;;;;;5028513;28;20080;-64
2022/03/02 06:40:41;;;;;;;30.85;16.23;;;8.70;99.90;;;;;;5029311;28;20087;-65
2022/03/02 06:43:12;;;;;;;28.38;15.13;;;8.70;99.90;;;;;;5029613;28;20048;-65
2022/03/02 06:45:47;;;;;;;21.70;12.63;;;8.60;99.90;;;;;;5029919;28;20405;-65
2022/03/02 06:48:52;;;;;;;25.88;12.45;;;8.70;99.90;;;;;;5029755;28;20044;-65
2022/03/02 06:51:23;;;;;;;24.73;12.48;;;8.70;99.90;;;;;;5008792;28;20041;-65
2022/03/02 06:53:50;;;;;;;23.38;12.32;;;8.70;99.90;;;;;;5009616;28;20041;-65
2022/03/02 06:56:19;;;;;;;23.38;10.80;;;8.70;99.90;;;;;;5008950;28;20042;-65
2022/03/02 06:58:50;;;;;;;21.17;10.40;;;8.70;99.90;;;;;;5008623;28;20521;-65
2022/03/02 07:01:28;;;;;;;19.02;10.20;;;8.70;99.90;;;;;;5009197;28;20109;-65
2022/03/02 07:03:58;;;;;;;25.70;10.32;;;8.90;99.90;;;;;;5008777;28;20406;-65
2022/03/02 07:06:25;;;;;;;24.05;11.00;;;8.80;99.90;;;;;;5008945;28;20442;-65
2022/03/02 07:08:51;;;;;;;25.63;10.63;;;8.70;99.90;;;;;;5009581;28;20029;-65
2022/03/02 07:11:17;;;;;;;23.35;10.77;;;8.80;99.90;;;;;;5008624;28;20475;-64
2022/03/02 07:13:48;;;;;;;25.85;11.25;;;8.70;99.90;;;;;;5008707;28;20053;-65
2022/03/02 07:16:15;;;;;;;25.75;10.43;;;8.70;99.90;;;;;;5008643;28;20580;-65
2022/03/02 07:18:41;;;;;;;22.05;10.27;;;8.80;99.90;;;;;;5008776;28;20049;-65
2022/03/02 07:21:14;;;;;;;24.13;11.43;;;8.80;99.90;;;;;;5008665;28;20034;-65
2022/03/02 07:23:54;;;;;;;22.73;10.93;;;8.80;99.90;;;;;;5009285;28;20091;-65
2022/03/02 07:26:21;;;;;;;21.92;10.48;;;8.70;99.90;;;;;;5028975;28;20486;-65
2022/03/02 07:28:48;;;;;;;19.48;10.43;;;8.80;99.90;;;;;;5029263;28;20026;-65
2022/03/02 07:31:14;;;;;;;21.92;10.02;;;8.80;99.90;;;;;;5029230;28;20033;-65
2022/03/02 07:33:42;;;;;;;19.73;10.50;;;8.80;99.90;;;;;;5033404;28;20098;-66
2022/03/02 07:36:10;;;;;;;19.95;11.18;;;8.80;99.90;;;;;;5032816;28;20057;-65
2022/03/02 07:38:36;;;;;;;20.42;11.00;;;8.90;99.90;;;;;;5034804;28;20034;-65
2022/03/02 07:41:07;;;;;;;44.50;39.55;;;8.70;99.90;;;;;;5032690;28;20520;-66
2022/03/02 07:43:36;;;;;;;23.33;11.07;;;8.70;99.90;;;;;;5032894;28;20503;-66
2022/03/02 07:46:04;;;;;;;22.13;10.32;;;8.90;99.90;;;;;;5032813;28;20064;-65
2022/03/02 07:48:31;;;;;;;19.17;9.80;;;8.80;99.90;;;;;;5032712;28;20030;-65
2022/03/02 07:50:58;;;;;;;20.05;10.93;;;8.80;99.90;;;;;;5034364;28;20022;-66
2022/03/02 07:53:26;;;;;;;21.67;10.48;;;8.90;99.90;;;;;;5032616;28;20029;-65
2022/03/02 07:55:53;;;;;;;22.60;9.85;;;8.80;99.90;;;;;;5030980;28;20039;-65
2022/03/02 07:58:21;;;;;;;23.33;10.68;;;8.80;99.90;;;;;;5032720;28;20103;-65
2022/03/02 08:00:48;;;;;;;24.40;10.35;;;8.90;99.90;;;;;;5032097;28;20521;-66
2022/03/02 08:03:15;;;;;;;24.05;10.35;;;8.90;99.90;;;;;;5032222;28;20033;-64
2022/03/02 08:05:43;;;;;;;22.27;10.30;;;9.00;99.90;;;;;;5034137;28;20017;-64
2022/03/02 08:08:10;;;;;;;20.60;10.30;;;8.90;99.90;;;;;;5032087;28;20038;-64
2022/03/02 08:10:36;;;;;;;23.15;11.00;;;8.90;99.90;;;;;;5030597;28;20033;-65
2022/03/02 08:13:02;;;;;;;21.60;10.48;;;8.90;99.90;;;;;;5032558;28;20021;-64
2022/03/02 08:15:29;;;;;;;27.02;11.27;;;8.90;99.90;;;;;;5032252;28;20033;-63
2022/03/02 08:17:55;;;;;;;24.25;12.63;;;8.80;99.90;;;;;;5033578;28;20542;-65
2022/03/02 08:20:21;;;;;;;18.70;11.50;;;8.80;99.90;;;;;;5032873;28;20525;-64
2022/03/02 08:22:51;;;;;;;23.40;12.10;;;8.80;99.90;;;;;;5031907;28;20017;-63
2022/03/02 08:25:24;;;;;;;21.30;11.90;;;8.90;99.90;;;;;;5032128;28;20033;-64
2022/03/02 08:27:53;;;;;;;30.90;12.73;;;9.00;99.90;;;;;;5032023;28;20032;-62
2022/03/02 08:30:18;;;;;;;21.13;12.10;;;9.10;99.90;;;;;;5031960;28;20064;-63
2022/03/02 08:32:47;;;;;;;23.02;11.70;;;9.00;99.90;;;;;;5033772;28;20060;-63
2022/03/02 08:35:13;;;;;;;28.42;12.30;;;8.90;99.90;;;;;;5031604;28;20057;-64
2022/03/02 08:37:40;;;;;;;26.73;14.18;;;8.90;99.90;;;;;;5030393;28;20033;-65
2022/03/02 08:40:08;;;;;;;28.15;13.32;;;8.90;99.90;;;;;;5031533;28;20061;-65
2022/03/02 08:42:34;;;;;;;22.77;12.55;;;9.00;99.90;;;;;;5030029;28;20068;-67
2022/03/02 08:45:00;;;;;;;20.40;11.88;;;9.10;99.90;;;;;;5032523;28;20078;-64
2022/03/02 08:47:26;;;;;;;24.20;12.70;;;9.10;99.90;;;;;;5032529;28;20026;-65
2022/03/02 08:49:54;;;;;;;23.90;13.68;;;9.10;99.90;;;;;;5029495;28;20041;-65
2022/03/02 08:52:25;;;;;;;28.17;13.68;;;9.00;99.90;;;;;;5030877;28;20025;-65
2022/03/02 08:54:52;;;;;;;29.58;12.95;;;9.10;99.90;;;;;;5031873;28;20086;-64
2022/03/02 08:57:18;;;;;;;24.38;12.85;;;9.30;99.90;;;;;;5031038;28;20098;-65
2022/03/02 08:59:44;;;;;;;26.23;13.32;;;9.30;99.90;;;;;;5033116;28;20040;-65
2022/03/02 09:02:10;;;;;;;26.92;14.32;;;9.40;99.90;;;;;;5031729;28;20030;-65
2022/03/02 09:04:37;;;;;;;24.40;13.27;;;9.40;99.90;;;;;;5031177;28;20166;-65
2022/03/02 09:07:05;;;;;;;19.23;11.40;;;9.60;99.90;;;;;;5030952;28;20026;-64
2022/03/02 09:09:31;;;;;;;21.75;10.70;;;9.60;99.90;;;;;;5030831;28;20033;-64
2022/03/02 09:11:57;;;;;;;26.02;10.50;;;9.70;99.90;;;;;;5031731;28;20099;-65
2022/03/02 09:14:24;;;;;;;24.60;10.70;;;9.60;99.90;;;;;;5030505;28;20029;-66
2022/03/02 09:16:51;;;;;;;23.63;10.23;;;9.70;99.90;;;;;;5031249;28;20060;-68
2022/03/02 09:19:17;;;;;;;21.80;10.43;;;9.80;99.90;;;;;;5030573;28;20498;-67
2022/03/02 09:21:44;;;;;;;23.25;11.40;;;9.70;99.90;;;;;;5030961;28;20072;-67
2022/03/02 09:24:11;;;;;;;22.30;9.90;;;9.70;99.90;;;;;;5031347;28;20080;-66
2022/03/02 09:26:38;;;;;;;22.10;10.23;;;9.60;99.90;;;;;;5031742;28;20422;-65
2022/03/02 09:29:06;;;;;;;18.48;10.63;;;9.70;99.90;;;;;;5030276;28;20037;-66
2022/03/02 09:31:34;;;;;;;23.95;11.07;;;9.80;99.90;;;;;;5031000;28;20034;-66
2022/03/02 09:34:04;;;;;;;24.05;11.25;;;9.80;99.90;;;;;;5030329;28;20076;-64
2022/03/02 09:36:36;;;;;;;21.73;10.75;;;9.60;99.90;;;;;;5030285;28;20103;-66
2022/03/02 09:39:04;;;;;;;23.23;11.65;;;9.60;99.90;;;;;;5031180;28;20022;-66
2022/03/02 09:41:40;;;;;;;21.77;11.02;;;9.70;99.90;;;;;;5032162;28;20095;-68
2022/03/02 09:44:06;;;;;;;23.25;10.88;;;9.60;99.90;;;;;;5030519;28;20025;-66
2022/03/02 09:46:35;;;;;;;22.90;10.93;;;9.60;99.90;;;;;;5030266;28;20033;-66
2022/03/02 09:49:09;;;;;;;19.25;9.57;;;9.70;99.90;;;;;;5029905;28;20128;-67
2022/03/02 09:51:37;;;;;;;19.08;10.38;;;9.70;99.90;;;;;;5029688;28;20525;-67
2022/03/02 09:54:04;;;;;;;21.25;10.48;;;9.70;99.90;;;;;;5030415;28;20045;-66
2022/03/02 09:56:31;;;;;;;20.55;10.38;;;9.90;99.90;;;;;;5031889;28;20120;-65
2022/03/02 09:59:00;;;;;;;19.90;10.80;;;9.90;99.90;;;;;;5030347;28;20056;-66
2022/03/02 10:01:27;;;;;;;22.70;11.02;;;10.10;99.90;;;;;;5030179;28;20072;-67
2022/03/02 10:03:54;;;;;;;21.55;10.50;;;10.20;99.90;;;;;;5029915;28;20040;-66
2022/03/02 10:06:21;;;;;;;22.52;10.90;;;10.30;99.90;;;;;;5014478;28;20033;-66
2022/03/02 10:08:51;;;;;;;21.30;9.95;;;10.30;99.90;;;;;;5027963;28;20095;-67
2022/03/02 10:11:25;;;;;;;22.67;11.32;;;10.30;99.90;;;;;;5028795;28;20167;-67
2022/03/02 10:13:56;;;;;;;22.45;11.15;;;10.40;99.90;;;;;;5030506;28;20058;-66
2022/03/02 10:16:25;;;;;;;19.30;10.32;;;10.60;99.90;;;;;;5030095;28;20490;-67
2022/03/02 10:19:02;;;;;;;21.35;10.68;;;10.60;99.90;;;;;;5029850;28;20022;-66
2022/03/02 10:21:30;;;;;;;19.83;11.00;;;10.70;99.90;;;;;;5015019;28;20532;-66
2022/03/02 10:24:03;;;;;;;21.27;11.20;;;10.70;99.90;;;;;;5030825;28;20104;-64
2022/03/02 10:26:39;;;;;;;21.75;10.52;;;10.80;99.90;;;;;;5029964;28;20505;-65
2022/03/02 10:29:31;;;;;;;18.48;11.18;;;10.80;99.90;;;;;;5027360;28;20030;-67
2022/03/02 10:32:21;;;;;;;17.95;10.52;;;10.90;99.90;;;;;;4988249;28;20034;-65
2022/03/02 10:34:50;;;;;;;24.25;11.20;;;10.80;99.90;;;;;;4986596;28;20400;-65
2022/03/02 10:37:29;;;;;;;21.13;11.60;;;10.90;99.90;;;;;;4985131;28;20054;-66
2022/03/02 10:40:09;;;;;;;23.45;10.50;;;10.90;99.90;;;;;;4987543;28;20053;-67
2022/03/02 10:42:45;;;;;;;22.98;10.38;;;10.90;99.90;;;;;;4986718;28;20043;-67
2022/03/02 10:45:18;;;;;;;22.13;11.93;;;10.90;99.90;;;;;;4988215;28;20022;-66
2022/03/02 10:47:55;;;;;;;26.48;13.48;;;11.10;99.90;;;;;;4990028;28;20026;-66
2022/03/02 10:50:25;;;;;;;20.52;11.10;;;11.20;99.90;;;;;;4987526;28;20142;-66
2022/03/02 10:52:54;;;;;;;23.20;11.07;;;11.20;99.90;;;;;;4986636;28;20026;-66
2022/03/02 10:55:21;;;;;;;22.92;10.70;;;11.50;99.90;;;;;;4986662;28;20088;-67
2022/03/02 10:57:49;;;;;;;21.60;10.65;;;11.50;99.90;;;;;;4986869;28;20057;-67
2022/03/02 11:00:18;;;;;;;22.48;10.05;;;11.60;99.90;;;;;;4987306;28;20427;-67
2022/03/02 11:02:48;;;;;;;20.55;9.70;;;11.80;99.90;;;;;;4989568;28;20034;-67
2022/03/02 11:05:16;;;;;;;18.08;10.77;;;12.10;99.90;;;;;;4986511;28;20407;-67
2022/03/02 11:07:42;;;;;;;17.45;10.55;;;12.00;99.90;;;;;;4993218;28;20030;-67
2022/03/02 11:10:14;;;;;;;21.15;11.10;;;12.10;99.90;;;;;;5032391;28;20156;-66
2022/03/02 11:12:44;;;;;;;19.10;10.27;;;11.90;99.90;;;;;;5033484;28;20402;-67
2022/03/02 11:15:12;;;;;;;22.35;10.30;;;12.10;99.90;;;;;;5033116;28;20033;-67
2022/03/02 11:17:50;;;;;;;16.80;9.52;;;12.00;99.90;;;;;;5035181;28;20029;-67
2022/03/02 11:20:16;;;;;;;18.40;9.90;;;12.10;99.90;;;;;;5033729;28;20542;-66
2022/03/02 11:22:55;;;;;;;21.13;9.45;;;12.10;99.90;;;;;;5032900;28;20117;-67
2022/03/02 11:25:41;;;;;;;20.35;9.90;;;12.30;99.90;;;;;;5031277;28;20422;-67
2022/03/02 11:28:07;;;;;;;17.92;9.13;;;12.40;99.90;;;;;;5032988;28;20025;-67
2022/03/02 11:30:34;;;;;;;19.20;9.65;;;12.30;99.90;;;;;;5032358;28;20034;-67
2022/03/02 11:33:07;;;;;;;18.40;9.00;;;12.40;99.90;;;;;;5033704;28;20025;-67
2022/03/02 11:35:36;;;;;;;18.55;8.48;;;12.70;99.90;;;;;;5032543;28;20099;-67
2022/03/02 11:38:04;;;;;;;15.45;7.85;;;13.00;99.90;;;;;;5032606;28;20040;-67
2022/03/02 11:40:45;;;;;;;16.27;8.18;;;13.00;99.90;;;;;;5033241;28;20108;-67
2022/03/02 11:43:19;;;;;;;12.27;6.93;;;13.20;99.90;;;;;;5032997;28;20025;-67
2022/03/02 11:45:46;;;;;;;11.13;6.68;;;13.40;99.90;;;;;;5032699;28;20025;-67
2022/03/02 11:48:15;;;;;;;15.38;9.10;;;13.50;99.90;;;;;;5032719;28;20033;-67
2022/03/02 11:51:21;;;;;;;12.82;8.80;;;13.90;99.90;;;;;;5033577;28;20023;-67
2022/03/02 11:53:55;;;;;;;13.50;6.65;;;13.90;99.90;;;;;;5012556;28;20030;-67
2022/03/02 11:56:25;;;;;;;23.13;16.23;;;14.20;99.90;;;;;;5010055;28;20045;-68
2022/03/02 11:58:57;;;;;;;20.05;17.95;;;14.40;99.90;;;;;;5008514;28;20062;-68
2022/03/02 12:01:24;;;;;;;16.13;11.23;;;14.60;99.90;;;;;;5008331;28;20053;-66
2022/03/02 12:04:03;;;;;;;11.65;6.78;;;14.40;99.90;;;;;;5009332;28;20034;-67
2022/03/02 12:06:37;;;;;;;68.00;57.78;;;14.40;99.90;;;;;;4996041;28;20030;-67
2022/03/02 12:09:04;;;;;;;11.20;8.90;;;14.60;99.90;;;;;;5011250;28;20048;-67
2022/03/02 12:11:35;;;;;;;162.77;122.03;;;14.50;99.90;;;;;;5009999;28;20026;-67
2022/03/02 12:14:09;;;;;;;13.35;9.57;;;14.40;99.90;;;;;;5006733;28;20133;-68
2022/03/02 12:16:43;;;;;;;11.45;6.35;;;14.40;99.90;;;;;;5002675;28;20113;-67
2022/03/02 12:19:26;;;;;;;136.93;122.20;;;14.40;99.90;;;;;;5010050;28;20108;-67
2022/03/02 12:22:00;;;;;;;122.20;110.15;;;14.60;99.90;;;;;;5008603;28;20041;-67
2022/03/02 12:24:33;;;;;;;30.52;27.73;;;14.50;99.90;;;;;;4995082;28;20490;-67
2022/03/02 12:27:03;;;;;;;15.25;13.65;;;14.60;99.90;;;;;;5015989;28;20083;-68
2022/03/02 12:29:30;;;;;;;9.15;7.10;;;14.80;99.90;;;;;;5031154;28;20045;-67
2022/03/02 12:32:10;;;;;;;8.82;4.63;;;15.40;99.90;;;;;;5032208;28;20505;-67
2022/03/02 12:34:45;;;;;;;5.97;3.10;;;15.90;99.90;;;;;;5031866;28;20030;-67
2022/03/02 12:37:12;;;;;;;8.00;5.90;;;15.80;99.90;;;;;;5031766;28;20406;-67
2022/03/02 12:39:39;;;;;;;7.15;4.22;;;15.50;99.90;;;;;;5032252;28;20653;-67
2022/03/02 12:42:08;;;;;;;4.93;3.22;;;15.20;99.90;;;;;;5032380;28;20025;-68
2022/03/02 12:44:42;;;;;;;5.18;3.42;;;14.80;99.90;;;;;;5031596;28;20429;-68